<?xml version="1.0" encoding="UTF-8" standalone="no" ?>
<gpx xmlns="http://www.topografix.com/GPX/1/1" xmlns:xsi="http://www.w3.org/2001/XMLSchema-instance" xsi:schemaLocation="http://www.topografix.com/GPX/1/1 http://www.topografix.com/GPX/1/1/gpx.xsd" version="1.1" creator="VisuGPX - https://www.visugpx.com">
  <metadata>
    <name>enéo meslin </name>
    <desc><![CDATA[marche enéo Meslin-l'éveque
guide CHRISTIAN.
Très belle randonnée.
Silly ,Hainaut]]></desc>
  </metadata>
  <trk>
    <name><![CDATA[2016-10-24 18:11:12]]></name>
    <trkseg>
      <trkpt lat="50.64863" lon="3.92369">
        <ele>64.07</ele>
        <time>2016-10-24T14:01:08Z</time>
      </trkpt>
      <trkpt lat="50.64863" lon="3.92369">
        <ele>64.07</ele>
        <time>2016-10-24T14:01:09Z</time>
      </trkpt>
      <trkpt lat="50.64863" lon="3.92369">
        <ele>65.51</ele>
        <time>2016-10-24T14:01:13Z</time>
      </trkpt>
      <trkpt lat="50.64863" lon="3.92369">
        <ele>64.07</ele>
        <time>2016-10-24T14:01:14Z</time>
      </trkpt>
      <trkpt lat="50.64863" lon="3.92371">
        <ele>63.1</ele>
        <time>2016-10-24T14:01:34Z</time>
      </trkpt>
      <trkpt lat="50.64863" lon="3.92373">
        <ele>63.1</ele>
        <time>2016-10-24T14:02:03Z</time>
      </trkpt>
      <trkpt lat="50.64857" lon="3.92371">
        <ele>63.1</ele>
        <time>2016-10-24T14:02:18Z</time>
      </trkpt>
      <trkpt lat="50.6484" lon="3.92363">
        <ele>63.1</ele>
        <time>2016-10-24T14:02:33Z</time>
      </trkpt>
      <trkpt lat="50.64833" lon="3.92367">
        <ele>63.1</ele>
        <time>2016-10-24T14:02:41Z</time>
      </trkpt>
      <trkpt lat="50.64819" lon="3.92359">
        <ele>64.07</ele>
        <time>2016-10-24T14:02:55Z</time>
      </trkpt>
      <trkpt lat="50.64816" lon="3.92359">
        <ele>64.07</ele>
        <time>2016-10-24T14:03:01Z</time>
      </trkpt>
      <trkpt lat="50.64806" lon="3.9237">
        <ele>64.07</ele>
        <time>2016-10-24T14:03:10Z</time>
      </trkpt>
      <trkpt lat="50.64796" lon="3.92402">
        <ele>65.03</ele>
        <time>2016-10-24T14:03:30Z</time>
      </trkpt>
      <trkpt lat="50.64789" lon="3.92421">
        <ele>65.51</ele>
        <time>2016-10-24T14:03:46Z</time>
      </trkpt>
      <trkpt lat="50.64775" lon="3.92443">
        <ele>66.47</ele>
        <time>2016-10-24T14:04:03Z</time>
      </trkpt>
      <trkpt lat="50.64762" lon="3.92432">
        <ele>66.95</ele>
        <time>2016-10-24T14:04:20Z</time>
      </trkpt>
      <trkpt lat="50.64745" lon="3.92426">
        <ele>66.95</ele>
        <time>2016-10-24T14:04:36Z</time>
      </trkpt>
      <trkpt lat="50.64733" lon="3.92446">
        <ele>65.03</ele>
        <time>2016-10-24T14:04:52Z</time>
      </trkpt>
      <trkpt lat="50.64722" lon="3.92439">
        <ele>65.03</ele>
        <time>2016-10-24T14:05:02Z</time>
      </trkpt>
      <trkpt lat="50.64703" lon="3.92428">
        <ele>67.91</ele>
        <time>2016-10-24T14:05:18Z</time>
      </trkpt>
      <trkpt lat="50.64698" lon="3.92425">
        <ele>68.39</ele>
        <time>2016-10-24T14:05:23Z</time>
      </trkpt>
      <trkpt lat="50.64679" lon="3.92413">
        <ele>68.87</ele>
        <time>2016-10-24T14:05:39Z</time>
      </trkpt>
      <trkpt lat="50.64663" lon="3.92398">
        <ele>69.35</ele>
        <time>2016-10-24T14:05:54Z</time>
      </trkpt>
      <trkpt lat="50.64649" lon="3.92385">
        <ele>69.83</ele>
        <time>2016-10-24T14:06:08Z</time>
      </trkpt>
      <trkpt lat="50.64634" lon="3.92369">
        <ele>69.83</ele>
        <time>2016-10-24T14:06:23Z</time>
      </trkpt>
      <trkpt lat="50.64622" lon="3.92359">
        <ele>69.83</ele>
        <time>2016-10-24T14:06:37Z</time>
      </trkpt>
      <trkpt lat="50.64609" lon="3.92346">
        <ele>69.83</ele>
        <time>2016-10-24T14:06:52Z</time>
      </trkpt>
      <trkpt lat="50.64593" lon="3.92337">
        <ele>69.83</ele>
        <time>2016-10-24T14:07:06Z</time>
      </trkpt>
      <trkpt lat="50.64576" lon="3.92325">
        <ele>70.31</ele>
        <time>2016-10-24T14:07:22Z</time>
      </trkpt>
      <trkpt lat="50.6457" lon="3.92324">
        <ele>70.31</ele>
        <time>2016-10-24T14:07:37Z</time>
      </trkpt>
      <trkpt lat="50.64566" lon="3.92321">
        <ele>70.31</ele>
        <time>2016-10-24T14:07:50Z</time>
      </trkpt>
      <trkpt lat="50.64545" lon="3.9233">
        <ele>70.31</ele>
        <time>2016-10-24T14:08:07Z</time>
      </trkpt>
      <trkpt lat="50.64525" lon="3.92336">
        <ele>70.79</ele>
        <time>2016-10-24T14:08:22Z</time>
      </trkpt>
      <trkpt lat="50.64503" lon="3.92344">
        <ele>71.27</ele>
        <time>2016-10-24T14:08:40Z</time>
      </trkpt>
      <trkpt lat="50.64481" lon="3.92351">
        <ele>72.24</ele>
        <time>2016-10-24T14:08:57Z</time>
      </trkpt>
      <trkpt lat="50.64462" lon="3.9236">
        <ele>73.2</ele>
        <time>2016-10-24T14:09:14Z</time>
      </trkpt>
      <trkpt lat="50.64441" lon="3.92369">
        <ele>73.68</ele>
        <time>2016-10-24T14:09:32Z</time>
      </trkpt>
      <trkpt lat="50.64416" lon="3.92378">
        <ele>74.64</ele>
        <time>2016-10-24T14:09:52Z</time>
      </trkpt>
      <trkpt lat="50.64399" lon="3.92384">
        <ele>76.08</ele>
        <time>2016-10-24T14:10:07Z</time>
      </trkpt>
      <trkpt lat="50.64374" lon="3.92382">
        <ele>78</ele>
        <time>2016-10-24T14:10:27Z</time>
      </trkpt>
      <trkpt lat="50.64359" lon="3.92381">
        <ele>78.97</ele>
        <time>2016-10-24T14:10:43Z</time>
      </trkpt>
      <trkpt lat="50.64358" lon="3.92382">
        <ele>78.97</ele>
        <time>2016-10-24T14:10:44Z</time>
      </trkpt>
      <trkpt lat="50.64353" lon="3.9238">
        <ele>79.45</ele>
        <time>2016-10-24T14:10:48Z</time>
      </trkpt>
      <trkpt lat="50.64331" lon="3.92377">
        <ele>80.41</ele>
        <time>2016-10-24T14:11:06Z</time>
      </trkpt>
      <trkpt lat="50.64313" lon="3.92373">
        <ele>80.89</ele>
        <time>2016-10-24T14:11:23Z</time>
      </trkpt>
      <trkpt lat="50.64294" lon="3.92371">
        <ele>81.85</ele>
        <time>2016-10-24T14:11:39Z</time>
      </trkpt>
      <trkpt lat="50.64275" lon="3.92365">
        <ele>82.81</ele>
        <time>2016-10-24T14:11:56Z</time>
      </trkpt>
      <trkpt lat="50.64256" lon="3.92357">
        <ele>83.29</ele>
        <time>2016-10-24T14:12:12Z</time>
      </trkpt>
      <trkpt lat="50.64236" lon="3.92348">
        <ele>84.73</ele>
        <time>2016-10-24T14:12:29Z</time>
      </trkpt>
      <trkpt lat="50.64219" lon="3.92341">
        <ele>86.18</ele>
        <time>2016-10-24T14:12:45Z</time>
      </trkpt>
      <trkpt lat="50.64204" lon="3.92335">
        <ele>87.14</ele>
        <time>2016-10-24T14:12:59Z</time>
      </trkpt>
      <trkpt lat="50.6419" lon="3.92329">
        <ele>88.58</ele>
        <time>2016-10-24T14:13:12Z</time>
      </trkpt>
      <trkpt lat="50.64172" lon="3.92323">
        <ele>89.54</ele>
        <time>2016-10-24T14:13:28Z</time>
      </trkpt>
      <trkpt lat="50.64156" lon="3.92316">
        <ele>91.46</ele>
        <time>2016-10-24T14:13:43Z</time>
      </trkpt>
      <trkpt lat="50.64139" lon="3.92312">
        <ele>93.39</ele>
        <time>2016-10-24T14:13:59Z</time>
      </trkpt>
      <trkpt lat="50.64125" lon="3.92308">
        <ele>94.83</ele>
        <time>2016-10-24T14:14:13Z</time>
      </trkpt>
      <trkpt lat="50.64107" lon="3.92305">
        <ele>95.31</ele>
        <time>2016-10-24T14:14:28Z</time>
      </trkpt>
      <trkpt lat="50.64092" lon="3.92302">
        <ele>95.31</ele>
        <time>2016-10-24T14:14:43Z</time>
      </trkpt>
      <trkpt lat="50.64086" lon="3.92311">
        <ele>95.31</ele>
        <time>2016-10-24T14:14:55Z</time>
      </trkpt>
      <trkpt lat="50.64085" lon="3.92317">
        <ele>95.31</ele>
        <time>2016-10-24T14:15:10Z</time>
      </trkpt>
      <trkpt lat="50.64082" lon="3.92321">
        <ele>94.83</ele>
        <time>2016-10-24T14:15:24Z</time>
      </trkpt>
      <trkpt lat="50.64076" lon="3.92335">
        <ele>94.83</ele>
        <time>2016-10-24T14:15:41Z</time>
      </trkpt>
      <trkpt lat="50.64069" lon="3.92356">
        <ele>95.31</ele>
        <time>2016-10-24T14:15:55Z</time>
      </trkpt>
      <trkpt lat="50.64059" lon="3.92377">
        <ele>95.31</ele>
        <time>2016-10-24T14:16:09Z</time>
      </trkpt>
      <trkpt lat="50.64049" lon="3.92401">
        <ele>95.31</ele>
        <time>2016-10-24T14:16:25Z</time>
      </trkpt>
      <trkpt lat="50.6404" lon="3.92429">
        <ele>95.31</ele>
        <time>2016-10-24T14:16:41Z</time>
      </trkpt>
      <trkpt lat="50.64029" lon="3.9246">
        <ele>94.35</ele>
        <time>2016-10-24T14:16:59Z</time>
      </trkpt>
      <trkpt lat="50.64023" lon="3.92479">
        <ele>94.35</ele>
        <time>2016-10-24T14:17:10Z</time>
      </trkpt>
      <trkpt lat="50.64013" lon="3.92509">
        <ele>93.39</ele>
        <time>2016-10-24T14:17:28Z</time>
      </trkpt>
      <trkpt lat="50.64003" lon="3.92537">
        <ele>92.9</ele>
        <time>2016-10-24T14:17:45Z</time>
      </trkpt>
      <trkpt lat="50.63995" lon="3.92562">
        <ele>91.94</ele>
        <time>2016-10-24T14:18:01Z</time>
      </trkpt>
      <trkpt lat="50.63986" lon="3.92591">
        <ele>91.94</ele>
        <time>2016-10-24T14:18:19Z</time>
      </trkpt>
      <trkpt lat="50.63977" lon="3.92618">
        <ele>91.46</ele>
        <time>2016-10-24T14:18:36Z</time>
      </trkpt>
      <trkpt lat="50.63969" lon="3.92642">
        <ele>90.98</ele>
        <time>2016-10-24T14:18:51Z</time>
      </trkpt>
      <trkpt lat="50.6396" lon="3.9267">
        <ele>90.5</ele>
        <time>2016-10-24T14:19:07Z</time>
      </trkpt>
      <trkpt lat="50.63951" lon="3.92697">
        <ele>90.02</ele>
        <time>2016-10-24T14:19:23Z</time>
      </trkpt>
      <trkpt lat="50.63942" lon="3.92725">
        <ele>89.54</ele>
        <time>2016-10-24T14:19:39Z</time>
      </trkpt>
      <trkpt lat="50.63931" lon="3.92756">
        <ele>89.06</ele>
        <time>2016-10-24T14:19:56Z</time>
      </trkpt>
      <trkpt lat="50.63925" lon="3.92776">
        <ele>88.1</ele>
        <time>2016-10-24T14:20:11Z</time>
      </trkpt>
      <trkpt lat="50.63924" lon="3.92774">
        <ele>88.1</ele>
        <time>2016-10-24T14:20:18Z</time>
      </trkpt>
      <trkpt lat="50.6391" lon="3.92776">
        <ele>88.1</ele>
        <time>2016-10-24T14:20:31Z</time>
      </trkpt>
      <trkpt lat="50.63904" lon="3.92774">
        <ele>89.54</ele>
        <time>2016-10-24T14:20:36Z</time>
      </trkpt>
      <trkpt lat="50.63891" lon="3.92767">
        <ele>92.42</ele>
        <time>2016-10-24T14:20:50Z</time>
      </trkpt>
      <trkpt lat="50.63872" lon="3.9276">
        <ele>94.35</ele>
        <time>2016-10-24T14:21:08Z</time>
      </trkpt>
      <trkpt lat="50.63863" lon="3.92758">
        <ele>94.83</ele>
        <time>2016-10-24T14:21:15Z</time>
      </trkpt>
      <trkpt lat="50.63858" lon="3.92755">
        <ele>94.83</ele>
        <time>2016-10-24T14:21:20Z</time>
      </trkpt>
      <trkpt lat="50.63839" lon="3.92749">
        <ele>95.79</ele>
        <time>2016-10-24T14:21:35Z</time>
      </trkpt>
      <trkpt lat="50.63827" lon="3.92746">
        <ele>95.79</ele>
        <time>2016-10-24T14:21:49Z</time>
      </trkpt>
      <trkpt lat="50.63826" lon="3.92745">
        <ele>95.79</ele>
        <time>2016-10-24T14:21:51Z</time>
      </trkpt>
      <trkpt lat="50.63824" lon="3.92744">
        <ele>95.79</ele>
        <time>2016-10-24T14:21:53Z</time>
      </trkpt>
      <trkpt lat="50.63822" lon="3.92744">
        <ele>95.79</ele>
        <time>2016-10-24T14:21:55Z</time>
      </trkpt>
      <trkpt lat="50.63817" lon="3.9274">
        <ele>95.79</ele>
        <time>2016-10-24T14:22:00Z</time>
      </trkpt>
      <trkpt lat="50.6381" lon="3.92735">
        <ele>94.35</ele>
        <time>2016-10-24T14:22:07Z</time>
      </trkpt>
      <trkpt lat="50.63805" lon="3.92731">
        <ele>94.35</ele>
        <time>2016-10-24T14:22:12Z</time>
      </trkpt>
      <trkpt lat="50.63802" lon="3.92732">
        <ele>94.35</ele>
        <time>2016-10-24T14:22:15Z</time>
      </trkpt>
      <trkpt lat="50.63793" lon="3.92745">
        <ele>94.35</ele>
        <time>2016-10-24T14:22:29Z</time>
      </trkpt>
      <trkpt lat="50.63778" lon="3.92764">
        <ele>94.35</ele>
        <time>2016-10-24T14:22:45Z</time>
      </trkpt>
      <trkpt lat="50.63763" lon="3.92782">
        <ele>95.79</ele>
        <time>2016-10-24T14:23:01Z</time>
      </trkpt>
      <trkpt lat="50.63745" lon="3.92797">
        <ele>96.75</ele>
        <time>2016-10-24T14:23:18Z</time>
      </trkpt>
      <trkpt lat="50.63728" lon="3.92805">
        <ele>96.75</ele>
        <time>2016-10-24T14:23:33Z</time>
      </trkpt>
      <trkpt lat="50.63707" lon="3.92811">
        <ele>96.75</ele>
        <time>2016-10-24T14:23:50Z</time>
      </trkpt>
      <trkpt lat="50.63688" lon="3.92817">
        <ele>95.31</ele>
        <time>2016-10-24T14:24:06Z</time>
      </trkpt>
      <trkpt lat="50.6367" lon="3.92826">
        <ele>94.83</ele>
        <time>2016-10-24T14:24:22Z</time>
      </trkpt>
      <trkpt lat="50.63654" lon="3.92841">
        <ele>94.35</ele>
        <time>2016-10-24T14:24:36Z</time>
      </trkpt>
      <trkpt lat="50.63638" lon="3.92857">
        <ele>93.87</ele>
        <time>2016-10-24T14:24:52Z</time>
      </trkpt>
      <trkpt lat="50.63628" lon="3.92867">
        <ele>93.87</ele>
        <time>2016-10-24T14:25:01Z</time>
      </trkpt>
      <trkpt lat="50.6361" lon="3.92886">
        <ele>93.87</ele>
        <time>2016-10-24T14:25:18Z</time>
      </trkpt>
      <trkpt lat="50.6359" lon="3.92912">
        <ele>93.87</ele>
        <time>2016-10-24T14:25:38Z</time>
      </trkpt>
      <trkpt lat="50.63576" lon="3.92934">
        <ele>93.87</ele>
        <time>2016-10-24T14:25:55Z</time>
      </trkpt>
      <trkpt lat="50.63561" lon="3.92958">
        <ele>93.87</ele>
        <time>2016-10-24T14:26:12Z</time>
      </trkpt>
      <trkpt lat="50.63548" lon="3.92984">
        <ele>93.87</ele>
        <time>2016-10-24T14:26:29Z</time>
      </trkpt>
      <trkpt lat="50.63536" lon="3.93009">
        <ele>92.9</ele>
        <time>2016-10-24T14:26:45Z</time>
      </trkpt>
      <trkpt lat="50.63526" lon="3.93032">
        <ele>92.42</ele>
        <time>2016-10-24T14:27:00Z</time>
      </trkpt>
      <trkpt lat="50.63516" lon="3.93055">
        <ele>92.42</ele>
        <time>2016-10-24T14:27:15Z</time>
      </trkpt>
      <trkpt lat="50.63504" lon="3.93081">
        <ele>92.42</ele>
        <time>2016-10-24T14:27:31Z</time>
      </trkpt>
      <trkpt lat="50.63496" lon="3.93109">
        <ele>92.42</ele>
        <time>2016-10-24T14:27:47Z</time>
      </trkpt>
      <trkpt lat="50.63488" lon="3.93139">
        <ele>92.42</ele>
        <time>2016-10-24T14:28:04Z</time>
      </trkpt>
      <trkpt lat="50.63487" lon="3.93143">
        <ele>93.87</ele>
        <time>2016-10-24T14:28:06Z</time>
      </trkpt>
      <trkpt lat="50.63474" lon="3.93176">
        <ele>94.35</ele>
        <time>2016-10-24T14:28:25Z</time>
      </trkpt>
      <trkpt lat="50.63461" lon="3.93206">
        <ele>95.31</ele>
        <time>2016-10-24T14:28:43Z</time>
      </trkpt>
      <trkpt lat="50.63447" lon="3.93228">
        <ele>95.31</ele>
        <time>2016-10-24T14:28:58Z</time>
      </trkpt>
      <trkpt lat="50.63435" lon="3.93254">
        <ele>97.23</ele>
        <time>2016-10-24T14:29:15Z</time>
      </trkpt>
      <trkpt lat="50.63423" lon="3.93289">
        <ele>98.67</ele>
        <time>2016-10-24T14:29:35Z</time>
      </trkpt>
      <trkpt lat="50.63415" lon="3.93314">
        <ele>98.67</ele>
        <time>2016-10-24T14:29:50Z</time>
      </trkpt>
      <trkpt lat="50.63405" lon="3.93339">
        <ele>96.75</ele>
        <time>2016-10-24T14:30:05Z</time>
      </trkpt>
      <trkpt lat="50.63395" lon="3.93364">
        <ele>95.79</ele>
        <time>2016-10-24T14:30:21Z</time>
      </trkpt>
      <trkpt lat="50.63381" lon="3.93392">
        <ele>94.35</ele>
        <time>2016-10-24T14:30:40Z</time>
      </trkpt>
      <trkpt lat="50.63365" lon="3.93418">
        <ele>93.39</ele>
        <time>2016-10-24T14:30:57Z</time>
      </trkpt>
      <trkpt lat="50.63352" lon="3.93445">
        <ele>92.9</ele>
        <time>2016-10-24T14:31:15Z</time>
      </trkpt>
      <trkpt lat="50.63338" lon="3.93471">
        <ele>91.94</ele>
        <time>2016-10-24T14:31:32Z</time>
      </trkpt>
      <trkpt lat="50.63321" lon="3.93492">
        <ele>91.94</ele>
        <time>2016-10-24T14:31:48Z</time>
      </trkpt>
      <trkpt lat="50.63309" lon="3.93512">
        <ele>91.46</ele>
        <time>2016-10-24T14:32:01Z</time>
      </trkpt>
      <trkpt lat="50.63294" lon="3.93533">
        <ele>91.46</ele>
        <time>2016-10-24T14:32:17Z</time>
      </trkpt>
      <trkpt lat="50.63287" lon="3.93541">
        <ele>91.46</ele>
        <time>2016-10-24T14:32:24Z</time>
      </trkpt>
      <trkpt lat="50.6327" lon="3.93561">
        <ele>90.98</ele>
        <time>2016-10-24T14:32:41Z</time>
      </trkpt>
      <trkpt lat="50.63255" lon="3.93578">
        <ele>90.5</ele>
        <time>2016-10-24T14:32:56Z</time>
      </trkpt>
      <trkpt lat="50.63235" lon="3.93605">
        <ele>90.02</ele>
        <time>2016-10-24T14:33:15Z</time>
      </trkpt>
      <trkpt lat="50.63221" lon="3.9363">
        <ele>89.06</ele>
        <time>2016-10-24T14:33:32Z</time>
      </trkpt>
      <trkpt lat="50.63206" lon="3.93655">
        <ele>89.06</ele>
        <time>2016-10-24T14:33:49Z</time>
      </trkpt>
      <trkpt lat="50.63194" lon="3.9369">
        <ele>88.1</ele>
        <time>2016-10-24T14:34:09Z</time>
      </trkpt>
      <trkpt lat="50.63187" lon="3.9372">
        <ele>87.62</ele>
        <time>2016-10-24T14:34:26Z</time>
      </trkpt>
      <trkpt lat="50.63186" lon="3.93734">
        <ele>87.62</ele>
        <time>2016-10-24T14:34:42Z</time>
      </trkpt>
      <trkpt lat="50.63186" lon="3.93736">
        <ele>87.62</ele>
        <time>2016-10-24T14:35:10Z</time>
      </trkpt>
      <trkpt lat="50.63188" lon="3.9374">
        <ele>87.62</ele>
        <time>2016-10-24T14:35:14Z</time>
      </trkpt>
      <trkpt lat="50.63201" lon="3.93754">
        <ele>87.62</ele>
        <time>2016-10-24T14:35:28Z</time>
      </trkpt>
      <trkpt lat="50.63215" lon="3.93775">
        <ele>87.62</ele>
        <time>2016-10-24T14:35:43Z</time>
      </trkpt>
      <trkpt lat="50.63231" lon="3.93794">
        <ele>89.06</ele>
        <time>2016-10-24T14:35:59Z</time>
      </trkpt>
      <trkpt lat="50.63248" lon="3.93813">
        <ele>89.06</ele>
        <time>2016-10-24T14:36:16Z</time>
      </trkpt>
      <trkpt lat="50.63267" lon="3.93838">
        <ele>90.5</ele>
        <time>2016-10-24T14:36:35Z</time>
      </trkpt>
      <trkpt lat="50.63284" lon="3.93858">
        <ele>90.98</ele>
        <time>2016-10-24T14:36:52Z</time>
      </trkpt>
      <trkpt lat="50.63302" lon="3.93873">
        <ele>91.46</ele>
        <time>2016-10-24T14:37:08Z</time>
      </trkpt>
      <trkpt lat="50.63318" lon="3.93882">
        <ele>91.94</ele>
        <time>2016-10-24T14:37:22Z</time>
      </trkpt>
      <trkpt lat="50.63327" lon="3.93889">
        <ele>92.42</ele>
        <time>2016-10-24T14:37:33Z</time>
      </trkpt>
      <trkpt lat="50.63344" lon="3.93899">
        <ele>93.39</ele>
        <time>2016-10-24T14:37:49Z</time>
      </trkpt>
      <trkpt lat="50.63362" lon="3.93908">
        <ele>93.87</ele>
        <time>2016-10-24T14:38:04Z</time>
      </trkpt>
      <trkpt lat="50.6338" lon="3.93919">
        <ele>93.87</ele>
        <time>2016-10-24T14:38:21Z</time>
      </trkpt>
      <trkpt lat="50.634" lon="3.93928">
        <ele>94.83</ele>
        <time>2016-10-24T14:38:39Z</time>
      </trkpt>
      <trkpt lat="50.63408" lon="3.93932">
        <ele>94.35</ele>
        <time>2016-10-24T14:38:44Z</time>
      </trkpt>
      <trkpt lat="50.6341" lon="3.93933">
        <ele>94.35</ele>
        <time>2016-10-24T14:38:46Z</time>
      </trkpt>
      <trkpt lat="50.63415" lon="3.93937">
        <ele>94.35</ele>
        <time>2016-10-24T14:38:50Z</time>
      </trkpt>
      <trkpt lat="50.6343" lon="3.93944">
        <ele>94.35</ele>
        <time>2016-10-24T14:39:03Z</time>
      </trkpt>
      <trkpt lat="50.63447" lon="3.93957">
        <ele>94.35</ele>
        <time>2016-10-24T14:39:19Z</time>
      </trkpt>
      <trkpt lat="50.63457" lon="3.93962">
        <ele>94.83</ele>
        <time>2016-10-24T14:39:29Z</time>
      </trkpt>
      <trkpt lat="50.6346" lon="3.93972">
        <ele>94.83</ele>
        <time>2016-10-24T14:39:36Z</time>
      </trkpt>
      <trkpt lat="50.63461" lon="3.93975">
        <ele>94.83</ele>
        <time>2016-10-24T14:39:38Z</time>
      </trkpt>
      <trkpt lat="50.63465" lon="3.93995">
        <ele>92.9</ele>
        <time>2016-10-24T14:39:53Z</time>
      </trkpt>
      <trkpt lat="50.63469" lon="3.94016">
        <ele>90.98</ele>
        <time>2016-10-24T14:40:08Z</time>
      </trkpt>
      <trkpt lat="50.63469" lon="3.94017">
        <ele>90.98</ele>
        <time>2016-10-24T14:40:09Z</time>
      </trkpt>
      <trkpt lat="50.63469" lon="3.94021">
        <ele>90.5</ele>
        <time>2016-10-24T14:40:11Z</time>
      </trkpt>
      <trkpt lat="50.63473" lon="3.94041">
        <ele>87.62</ele>
        <time>2016-10-24T14:40:27Z</time>
      </trkpt>
      <trkpt lat="50.63476" lon="3.94059">
        <ele>86.18</ele>
        <time>2016-10-24T14:40:39Z</time>
      </trkpt>
      <trkpt lat="50.63479" lon="3.94077">
        <ele>84.25</ele>
        <time>2016-10-24T14:40:51Z</time>
      </trkpt>
      <trkpt lat="50.63483" lon="3.94094">
        <ele>82.81</ele>
        <time>2016-10-24T14:41:05Z</time>
      </trkpt>
      <trkpt lat="50.63482" lon="3.94103">
        <ele>82.33</ele>
        <time>2016-10-24T14:41:22Z</time>
      </trkpt>
      <trkpt lat="50.63485" lon="3.94103">
        <ele>82.33</ele>
        <time>2016-10-24T14:41:42Z</time>
      </trkpt>
      <trkpt lat="50.63486" lon="3.94109">
        <ele>82.33</ele>
        <time>2016-10-24T14:41:59Z</time>
      </trkpt>
      <trkpt lat="50.63491" lon="3.9411">
        <ele>82.33</ele>
        <time>2016-10-24T14:42:17Z</time>
      </trkpt>
      <trkpt lat="50.6349" lon="3.94121">
        <ele>82.33</ele>
        <time>2016-10-24T14:42:24Z</time>
      </trkpt>
      <trkpt lat="50.6349" lon="3.94124">
        <ele>82.33</ele>
        <time>2016-10-24T14:42:26Z</time>
      </trkpt>
      <trkpt lat="50.63494" lon="3.94141">
        <ele>81.85</ele>
        <time>2016-10-24T14:42:40Z</time>
      </trkpt>
      <trkpt lat="50.63517" lon="3.94143">
        <ele>83.29</ele>
        <time>2016-10-24T14:42:57Z</time>
      </trkpt>
      <trkpt lat="50.6354" lon="3.94148">
        <ele>85.21</ele>
        <time>2016-10-24T14:43:16Z</time>
      </trkpt>
      <trkpt lat="50.6356" lon="3.94149">
        <ele>86.66</ele>
        <time>2016-10-24T14:43:32Z</time>
      </trkpt>
      <trkpt lat="50.63569" lon="3.94148">
        <ele>87.62</ele>
        <time>2016-10-24T14:43:46Z</time>
      </trkpt>
      <trkpt lat="50.63572" lon="3.9415">
        <ele>88.1</ele>
        <time>2016-10-24T14:43:49Z</time>
      </trkpt>
      <trkpt lat="50.63588" lon="3.94161">
        <ele>90.02</ele>
        <time>2016-10-24T14:44:07Z</time>
      </trkpt>
      <trkpt lat="50.63598" lon="3.94174">
        <ele>90.98</ele>
        <time>2016-10-24T14:44:20Z</time>
      </trkpt>
      <trkpt lat="50.63612" lon="3.94198">
        <ele>91.94</ele>
        <time>2016-10-24T14:44:39Z</time>
      </trkpt>
      <trkpt lat="50.63617" lon="3.94205">
        <ele>91.94</ele>
        <time>2016-10-24T14:44:46Z</time>
      </trkpt>
      <trkpt lat="50.6363" lon="3.94225">
        <ele>91.94</ele>
        <time>2016-10-24T14:45:01Z</time>
      </trkpt>
      <trkpt lat="50.63643" lon="3.94243">
        <ele>90.5</ele>
        <time>2016-10-24T14:45:16Z</time>
      </trkpt>
      <trkpt lat="50.6365" lon="3.94251">
        <ele>90.02</ele>
        <time>2016-10-24T14:45:23Z</time>
      </trkpt>
      <trkpt lat="50.63659" lon="3.94267">
        <ele>89.54</ele>
        <time>2016-10-24T14:45:36Z</time>
      </trkpt>
      <trkpt lat="50.63672" lon="3.94291">
        <ele>89.06</ele>
        <time>2016-10-24T14:45:51Z</time>
      </trkpt>
      <trkpt lat="50.63677" lon="3.94298">
        <ele>88.58</ele>
        <time>2016-10-24T14:45:56Z</time>
      </trkpt>
      <trkpt lat="50.6369" lon="3.94319">
        <ele>88.1</ele>
        <time>2016-10-24T14:46:10Z</time>
      </trkpt>
      <trkpt lat="50.63701" lon="3.94344">
        <ele>87.62</ele>
        <time>2016-10-24T14:46:25Z</time>
      </trkpt>
      <trkpt lat="50.63715" lon="3.94365">
        <ele>87.14</ele>
        <time>2016-10-24T14:46:43Z</time>
      </trkpt>
      <trkpt lat="50.63731" lon="3.94393">
        <ele>86.18</ele>
        <time>2016-10-24T14:47:00Z</time>
      </trkpt>
      <trkpt lat="50.63746" lon="3.94405">
        <ele>85.69</ele>
        <time>2016-10-24T14:47:17Z</time>
      </trkpt>
      <trkpt lat="50.63738" lon="3.94391">
        <ele>85.69</ele>
        <time>2016-10-24T14:47:33Z</time>
      </trkpt>
      <trkpt lat="50.63729" lon="3.94399">
        <ele>84.73</ele>
        <time>2016-10-24T14:47:51Z</time>
      </trkpt>
      <trkpt lat="50.63726" lon="3.94409">
        <ele>84.25</ele>
        <time>2016-10-24T14:48:00Z</time>
      </trkpt>
      <trkpt lat="50.63716" lon="3.94424">
        <ele>83.29</ele>
        <time>2016-10-24T14:48:15Z</time>
      </trkpt>
      <trkpt lat="50.63705" lon="3.94445">
        <ele>81.37</ele>
        <time>2016-10-24T14:48:32Z</time>
      </trkpt>
      <trkpt lat="50.63696" lon="3.94464">
        <ele>79.45</ele>
        <time>2016-10-24T14:48:47Z</time>
      </trkpt>
      <trkpt lat="50.63682" lon="3.94488">
        <ele>78</ele>
        <time>2016-10-24T14:49:02Z</time>
      </trkpt>
      <trkpt lat="50.6367" lon="3.94505">
        <ele>76.08</ele>
        <time>2016-10-24T14:49:14Z</time>
      </trkpt>
      <trkpt lat="50.63658" lon="3.94526">
        <ele>74.64</ele>
        <time>2016-10-24T14:49:28Z</time>
      </trkpt>
      <trkpt lat="50.63651" lon="3.94542">
        <ele>73.68</ele>
        <time>2016-10-24T14:49:42Z</time>
      </trkpt>
      <trkpt lat="50.63639" lon="3.9456">
        <ele>72.24</ele>
        <time>2016-10-24T14:49:56Z</time>
      </trkpt>
      <trkpt lat="50.63632" lon="3.94577">
        <ele>70.79</ele>
        <time>2016-10-24T14:50:08Z</time>
      </trkpt>
      <trkpt lat="50.63616" lon="3.94606">
        <ele>68.87</ele>
        <time>2016-10-24T14:50:23Z</time>
      </trkpt>
      <trkpt lat="50.63608" lon="3.9462">
        <ele>67.91</ele>
        <time>2016-10-24T14:50:36Z</time>
      </trkpt>
      <trkpt lat="50.63601" lon="3.94636">
        <ele>66.95</ele>
        <time>2016-10-24T14:50:50Z</time>
      </trkpt>
      <trkpt lat="50.63582" lon="3.94658">
        <ele>66.47</ele>
        <time>2016-10-24T14:51:04Z</time>
      </trkpt>
      <trkpt lat="50.6358" lon="3.94665">
        <ele>65.99</ele>
        <time>2016-10-24T14:51:09Z</time>
      </trkpt>
      <trkpt lat="50.63572" lon="3.94683">
        <ele>65.03</ele>
        <time>2016-10-24T14:51:24Z</time>
      </trkpt>
      <trkpt lat="50.6356" lon="3.94701">
        <ele>64.07</ele>
        <time>2016-10-24T14:51:39Z</time>
      </trkpt>
      <trkpt lat="50.63544" lon="3.94727">
        <ele>63.58</ele>
        <time>2016-10-24T14:51:55Z</time>
      </trkpt>
      <trkpt lat="50.63532" lon="3.94749">
        <ele>63.58</ele>
        <time>2016-10-24T14:52:11Z</time>
      </trkpt>
      <trkpt lat="50.6353" lon="3.94753">
        <ele>63.58</ele>
        <time>2016-10-24T14:52:14Z</time>
      </trkpt>
      <trkpt lat="50.63527" lon="3.94761">
        <ele>63.58</ele>
        <time>2016-10-24T14:52:20Z</time>
      </trkpt>
      <trkpt lat="50.63516" lon="3.94782">
        <ele>63.58</ele>
        <time>2016-10-24T14:52:35Z</time>
      </trkpt>
      <trkpt lat="50.63505" lon="3.94801">
        <ele>65.03</ele>
        <time>2016-10-24T14:52:50Z</time>
      </trkpt>
      <trkpt lat="50.63505" lon="3.94803">
        <ele>65.03</ele>
        <time>2016-10-24T14:52:51Z</time>
      </trkpt>
      <trkpt lat="50.63494" lon="3.94817">
        <ele>65.51</ele>
        <time>2016-10-24T14:53:01Z</time>
      </trkpt>
      <trkpt lat="50.63486" lon="3.94836">
        <ele>67.91</ele>
        <time>2016-10-24T14:53:16Z</time>
      </trkpt>
      <trkpt lat="50.63473" lon="3.9486">
        <ele>69.35</ele>
        <time>2016-10-24T14:53:32Z</time>
      </trkpt>
      <trkpt lat="50.63469" lon="3.94868">
        <ele>69.83</ele>
        <time>2016-10-24T14:53:38Z</time>
      </trkpt>
      <trkpt lat="50.63459" lon="3.9489">
        <ele>71.27</ele>
        <time>2016-10-24T14:53:53Z</time>
      </trkpt>
      <trkpt lat="50.63452" lon="3.94905">
        <ele>72.24</ele>
        <time>2016-10-24T14:54:07Z</time>
      </trkpt>
      <trkpt lat="50.63432" lon="3.94932">
        <ele>73.2</ele>
        <time>2016-10-24T14:54:25Z</time>
      </trkpt>
      <trkpt lat="50.63423" lon="3.94953">
        <ele>74.16</ele>
        <time>2016-10-24T14:54:42Z</time>
      </trkpt>
      <trkpt lat="50.63416" lon="3.94963">
        <ele>74.16</ele>
        <time>2016-10-24T14:55:00Z</time>
      </trkpt>
      <trkpt lat="50.63406" lon="3.94988">
        <ele>75.12</ele>
        <time>2016-10-24T14:55:14Z</time>
      </trkpt>
      <trkpt lat="50.63406" lon="3.94989">
        <ele>75.12</ele>
        <time>2016-10-24T14:55:15Z</time>
      </trkpt>
      <trkpt lat="50.63397" lon="3.95008">
        <ele>75.6</ele>
        <time>2016-10-24T14:55:31Z</time>
      </trkpt>
      <trkpt lat="50.63391" lon="3.95018">
        <ele>75.6</ele>
        <time>2016-10-24T14:55:38Z</time>
      </trkpt>
      <trkpt lat="50.63386" lon="3.95033">
        <ele>75.6</ele>
        <time>2016-10-24T14:55:50Z</time>
      </trkpt>
      <trkpt lat="50.63381" lon="3.95039">
        <ele>76.08</ele>
        <time>2016-10-24T14:55:54Z</time>
      </trkpt>
      <trkpt lat="50.63373" lon="3.95061">
        <ele>76.08</ele>
        <time>2016-10-24T14:56:09Z</time>
      </trkpt>
      <trkpt lat="50.63356" lon="3.95085">
        <ele>76.56</ele>
        <time>2016-10-24T14:56:22Z</time>
      </trkpt>
      <trkpt lat="50.63345" lon="3.95104">
        <ele>77.52</ele>
        <time>2016-10-24T14:56:36Z</time>
      </trkpt>
      <trkpt lat="50.63337" lon="3.95116">
        <ele>78.97</ele>
        <time>2016-10-24T14:56:50Z</time>
      </trkpt>
      <trkpt lat="50.63329" lon="3.95127">
        <ele>79.45</ele>
        <time>2016-10-24T14:57:00Z</time>
      </trkpt>
      <trkpt lat="50.63327" lon="3.9513">
        <ele>79.93</ele>
        <time>2016-10-24T14:57:02Z</time>
      </trkpt>
      <trkpt lat="50.63312" lon="3.95157">
        <ele>81.37</ele>
        <time>2016-10-24T14:57:21Z</time>
      </trkpt>
      <trkpt lat="50.63303" lon="3.95175">
        <ele>82.81</ele>
        <time>2016-10-24T14:57:36Z</time>
      </trkpt>
      <trkpt lat="50.63297" lon="3.95184">
        <ele>82.81</ele>
        <time>2016-10-24T14:57:51Z</time>
      </trkpt>
      <trkpt lat="50.63293" lon="3.95204">
        <ele>83.77</ele>
        <time>2016-10-24T14:58:02Z</time>
      </trkpt>
      <trkpt lat="50.63292" lon="3.95214">
        <ele>84.25</ele>
        <time>2016-10-24T14:58:17Z</time>
      </trkpt>
      <trkpt lat="50.63292" lon="3.95207">
        <ele>84.25</ele>
        <time>2016-10-24T14:58:41Z</time>
      </trkpt>
      <trkpt lat="50.63293" lon="3.95211">
        <ele>84.25</ele>
        <time>2016-10-24T14:59:08Z</time>
      </trkpt>
      <trkpt lat="50.63295" lon="3.9521">
        <ele>84.25</ele>
        <time>2016-10-24T14:59:29Z</time>
      </trkpt>
      <trkpt lat="50.63302" lon="3.95217">
        <ele>84.25</ele>
        <time>2016-10-24T14:59:38Z</time>
      </trkpt>
      <trkpt lat="50.63312" lon="3.95222">
        <ele>84.25</ele>
        <time>2016-10-24T14:59:47Z</time>
      </trkpt>
      <trkpt lat="50.63329" lon="3.95241">
        <ele>84.25</ele>
        <time>2016-10-24T15:00:02Z</time>
      </trkpt>
      <trkpt lat="50.63337" lon="3.95248">
        <ele>84.25</ele>
        <time>2016-10-24T15:00:16Z</time>
      </trkpt>
      <trkpt lat="50.63351" lon="3.95254">
        <ele>84.25</ele>
        <time>2016-10-24T15:00:31Z</time>
      </trkpt>
      <trkpt lat="50.63358" lon="3.95259">
        <ele>82.81</ele>
        <time>2016-10-24T15:00:36Z</time>
      </trkpt>
      <trkpt lat="50.63366" lon="3.95272">
        <ele>82.81</ele>
        <time>2016-10-24T15:00:41Z</time>
      </trkpt>
      <trkpt lat="50.63385" lon="3.95281">
        <ele>82.33</ele>
        <time>2016-10-24T15:01:00Z</time>
      </trkpt>
      <trkpt lat="50.63399" lon="3.95289">
        <ele>81.85</ele>
        <time>2016-10-24T15:01:16Z</time>
      </trkpt>
      <trkpt lat="50.634" lon="3.95289">
        <ele>81.85</ele>
        <time>2016-10-24T15:01:17Z</time>
      </trkpt>
      <trkpt lat="50.63421" lon="3.95301">
        <ele>80.89</ele>
        <time>2016-10-24T15:01:34Z</time>
      </trkpt>
      <trkpt lat="50.63438" lon="3.95315">
        <ele>80.41</ele>
        <time>2016-10-24T15:01:50Z</time>
      </trkpt>
      <trkpt lat="50.63451" lon="3.9532">
        <ele>79.93</ele>
        <time>2016-10-24T15:02:05Z</time>
      </trkpt>
      <trkpt lat="50.63463" lon="3.95326">
        <ele>79.93</ele>
        <time>2016-10-24T15:02:24Z</time>
      </trkpt>
      <trkpt lat="50.63484" lon="3.95343">
        <ele>79.45</ele>
        <time>2016-10-24T15:02:41Z</time>
      </trkpt>
      <trkpt lat="50.63504" lon="3.95356">
        <ele>79.45</ele>
        <time>2016-10-24T15:02:58Z</time>
      </trkpt>
      <trkpt lat="50.63514" lon="3.95374">
        <ele>79.45</ele>
        <time>2016-10-24T15:03:12Z</time>
      </trkpt>
      <trkpt lat="50.63515" lon="3.95376">
        <ele>79.45</ele>
        <time>2016-10-24T15:03:14Z</time>
      </trkpt>
      <trkpt lat="50.63515" lon="3.95381">
        <ele>80.41</ele>
        <time>2016-10-24T15:03:17Z</time>
      </trkpt>
      <trkpt lat="50.63518" lon="3.95402">
        <ele>80.41</ele>
        <time>2016-10-24T15:03:30Z</time>
      </trkpt>
      <trkpt lat="50.63526" lon="3.95433">
        <ele>80.89</ele>
        <time>2016-10-24T15:03:47Z</time>
      </trkpt>
      <trkpt lat="50.63542" lon="3.95455">
        <ele>79.45</ele>
        <time>2016-10-24T15:04:04Z</time>
      </trkpt>
      <trkpt lat="50.63565" lon="3.95469">
        <ele>78.48</ele>
        <time>2016-10-24T15:04:22Z</time>
      </trkpt>
      <trkpt lat="50.6358" lon="3.95479">
        <ele>77.52</ele>
        <time>2016-10-24T15:04:36Z</time>
      </trkpt>
      <trkpt lat="50.63596" lon="3.95494">
        <ele>76.56</ele>
        <time>2016-10-24T15:04:50Z</time>
      </trkpt>
      <trkpt lat="50.63611" lon="3.95507">
        <ele>75.6</ele>
        <time>2016-10-24T15:05:06Z</time>
      </trkpt>
      <trkpt lat="50.63613" lon="3.95509">
        <ele>75.6</ele>
        <time>2016-10-24T15:05:08Z</time>
      </trkpt>
      <trkpt lat="50.63629" lon="3.95525">
        <ele>74.16</ele>
        <time>2016-10-24T15:05:25Z</time>
      </trkpt>
      <trkpt lat="50.63643" lon="3.95541">
        <ele>72.24</ele>
        <time>2016-10-24T15:05:40Z</time>
      </trkpt>
      <trkpt lat="50.63654" lon="3.95561">
        <ele>70.31</ele>
        <time>2016-10-24T15:05:54Z</time>
      </trkpt>
      <trkpt lat="50.63656" lon="3.95563">
        <ele>70.79</ele>
        <time>2016-10-24T15:05:56Z</time>
      </trkpt>
      <trkpt lat="50.63664" lon="3.95574">
        <ele>69.83</ele>
        <time>2016-10-24T15:06:05Z</time>
      </trkpt>
      <trkpt lat="50.63676" lon="3.95588">
        <ele>66.95</ele>
        <time>2016-10-24T15:06:22Z</time>
      </trkpt>
      <trkpt lat="50.63691" lon="3.9562">
        <ele>64.55</ele>
        <time>2016-10-24T15:06:39Z</time>
      </trkpt>
      <trkpt lat="50.63703" lon="3.95641">
        <ele>62.62</ele>
        <time>2016-10-24T15:06:54Z</time>
      </trkpt>
      <trkpt lat="50.63715" lon="3.95665">
        <ele>60.22</ele>
        <time>2016-10-24T15:07:10Z</time>
      </trkpt>
      <trkpt lat="50.6373" lon="3.95685">
        <ele>59.26</ele>
        <time>2016-10-24T15:07:27Z</time>
      </trkpt>
      <trkpt lat="50.63739" lon="3.95711">
        <ele>58.3</ele>
        <time>2016-10-24T15:07:42Z</time>
      </trkpt>
      <trkpt lat="50.63743" lon="3.95741">
        <ele>58.3</ele>
        <time>2016-10-24T15:07:59Z</time>
      </trkpt>
      <trkpt lat="50.6375" lon="3.95767">
        <ele>57.82</ele>
        <time>2016-10-24T15:08:14Z</time>
      </trkpt>
      <trkpt lat="50.63756" lon="3.95786">
        <ele>57.82</ele>
        <time>2016-10-24T15:08:28Z</time>
      </trkpt>
      <trkpt lat="50.63765" lon="3.95802">
        <ele>57.82</ele>
        <time>2016-10-24T15:08:39Z</time>
      </trkpt>
      <trkpt lat="50.63777" lon="3.95835">
        <ele>60.7</ele>
        <time>2016-10-24T15:08:59Z</time>
      </trkpt>
      <trkpt lat="50.63786" lon="3.95858">
        <ele>61.18</ele>
        <time>2016-10-24T15:09:12Z</time>
      </trkpt>
      <trkpt lat="50.63787" lon="3.9586">
        <ele>61.18</ele>
        <time>2016-10-24T15:09:13Z</time>
      </trkpt>
      <trkpt lat="50.63794" lon="3.95885">
        <ele>62.62</ele>
        <time>2016-10-24T15:09:26Z</time>
      </trkpt>
      <trkpt lat="50.63803" lon="3.95906">
        <ele>64.55</ele>
        <time>2016-10-24T15:09:42Z</time>
      </trkpt>
      <trkpt lat="50.63805" lon="3.95909">
        <ele>65.03</ele>
        <time>2016-10-24T15:09:44Z</time>
      </trkpt>
      <trkpt lat="50.63813" lon="3.95919">
        <ele>65.99</ele>
        <time>2016-10-24T15:09:54Z</time>
      </trkpt>
      <trkpt lat="50.63817" lon="3.95924">
        <ele>66.47</ele>
        <time>2016-10-24T15:09:58Z</time>
      </trkpt>
      <trkpt lat="50.63832" lon="3.95934">
        <ele>66.95</ele>
        <time>2016-10-24T15:10:13Z</time>
      </trkpt>
      <trkpt lat="50.63841" lon="3.9594">
        <ele>68.39</ele>
        <time>2016-10-24T15:10:25Z</time>
      </trkpt>
      <trkpt lat="50.63846" lon="3.95951">
        <ele>69.35</ele>
        <time>2016-10-24T15:10:37Z</time>
      </trkpt>
      <trkpt lat="50.63858" lon="3.95958">
        <ele>70.31</ele>
        <time>2016-10-24T15:10:49Z</time>
      </trkpt>
      <trkpt lat="50.63873" lon="3.95971">
        <ele>71.76</ele>
        <time>2016-10-24T15:11:03Z</time>
      </trkpt>
      <trkpt lat="50.63882" lon="3.95985">
        <ele>73.2</ele>
        <time>2016-10-24T15:11:17Z</time>
      </trkpt>
      <trkpt lat="50.63891" lon="3.95993">
        <ele>74.16</ele>
        <time>2016-10-24T15:11:31Z</time>
      </trkpt>
      <trkpt lat="50.63897" lon="3.95993">
        <ele>74.16</ele>
        <time>2016-10-24T15:11:45Z</time>
      </trkpt>
      <trkpt lat="50.63903" lon="3.95988">
        <ele>74.64</ele>
        <time>2016-10-24T15:11:49Z</time>
      </trkpt>
      <trkpt lat="50.63915" lon="3.95974">
        <ele>74.64</ele>
        <time>2016-10-24T15:12:03Z</time>
      </trkpt>
      <trkpt lat="50.63919" lon="3.95969">
        <ele>74.64</ele>
        <time>2016-10-24T15:12:08Z</time>
      </trkpt>
      <trkpt lat="50.63922" lon="3.95965">
        <ele>74.64</ele>
        <time>2016-10-24T15:12:11Z</time>
      </trkpt>
      <trkpt lat="50.63932" lon="3.95955">
        <ele>74.64</ele>
        <time>2016-10-24T15:12:20Z</time>
      </trkpt>
      <trkpt lat="50.63947" lon="3.95939">
        <ele>74.64</ele>
        <time>2016-10-24T15:12:31Z</time>
      </trkpt>
      <trkpt lat="50.63956" lon="3.95923">
        <ele>75.12</ele>
        <time>2016-10-24T15:12:47Z</time>
      </trkpt>
      <trkpt lat="50.63974" lon="3.95902">
        <ele>76.08</ele>
        <time>2016-10-24T15:13:06Z</time>
      </trkpt>
      <trkpt lat="50.6399" lon="3.95879">
        <ele>77.04</ele>
        <time>2016-10-24T15:13:24Z</time>
      </trkpt>
      <trkpt lat="50.64004" lon="3.95863">
        <ele>77.52</ele>
        <time>2016-10-24T15:13:38Z</time>
      </trkpt>
      <trkpt lat="50.64014" lon="3.95845">
        <ele>77.52</ele>
        <time>2016-10-24T15:13:53Z</time>
      </trkpt>
      <trkpt lat="50.6403" lon="3.95834">
        <ele>77.52</ele>
        <time>2016-10-24T15:14:10Z</time>
      </trkpt>
      <trkpt lat="50.64044" lon="3.95822">
        <ele>77.52</ele>
        <time>2016-10-24T15:14:26Z</time>
      </trkpt>
      <trkpt lat="50.64046" lon="3.9582">
        <ele>76.56</ele>
        <time>2016-10-24T15:14:28Z</time>
      </trkpt>
      <trkpt lat="50.64067" lon="3.95807">
        <ele>76.56</ele>
        <time>2016-10-24T15:14:43Z</time>
      </trkpt>
      <trkpt lat="50.64087" lon="3.95783">
        <ele>76.56</ele>
        <time>2016-10-24T15:14:59Z</time>
      </trkpt>
      <trkpt lat="50.6409" lon="3.95779">
        <ele>76.56</ele>
        <time>2016-10-24T15:15:02Z</time>
      </trkpt>
      <trkpt lat="50.641" lon="3.95756">
        <ele>76.56</ele>
        <time>2016-10-24T15:15:16Z</time>
      </trkpt>
      <trkpt lat="50.64105" lon="3.9573">
        <ele>75.12</ele>
        <time>2016-10-24T15:15:30Z</time>
      </trkpt>
      <trkpt lat="50.6411" lon="3.95711">
        <ele>75.12</ele>
        <time>2016-10-24T15:15:44Z</time>
      </trkpt>
      <trkpt lat="50.64121" lon="3.95699">
        <ele>75.6</ele>
        <time>2016-10-24T15:15:58Z</time>
      </trkpt>
      <trkpt lat="50.64133" lon="3.95685">
        <ele>75.6</ele>
        <time>2016-10-24T15:16:12Z</time>
      </trkpt>
      <trkpt lat="50.64149" lon="3.95671">
        <ele>74.64</ele>
        <time>2016-10-24T15:16:25Z</time>
      </trkpt>
      <trkpt lat="50.64161" lon="3.95657">
        <ele>74.64</ele>
        <time>2016-10-24T15:16:38Z</time>
      </trkpt>
      <trkpt lat="50.64176" lon="3.95634">
        <ele>74.64</ele>
        <time>2016-10-24T15:16:52Z</time>
      </trkpt>
      <trkpt lat="50.64183" lon="3.95627">
        <ele>74.64</ele>
        <time>2016-10-24T15:17:06Z</time>
      </trkpt>
      <trkpt lat="50.64189" lon="3.95618">
        <ele>74.64</ele>
        <time>2016-10-24T15:17:20Z</time>
      </trkpt>
      <trkpt lat="50.64195" lon="3.9561">
        <ele>74.16</ele>
        <time>2016-10-24T15:17:35Z</time>
      </trkpt>
      <trkpt lat="50.64202" lon="3.95597">
        <ele>72.72</ele>
        <time>2016-10-24T15:17:49Z</time>
      </trkpt>
      <trkpt lat="50.64213" lon="3.95592">
        <ele>72.72</ele>
        <time>2016-10-24T15:18:02Z</time>
      </trkpt>
      <trkpt lat="50.64231" lon="3.95587">
        <ele>72.24</ele>
        <time>2016-10-24T15:18:15Z</time>
      </trkpt>
      <trkpt lat="50.64247" lon="3.95589">
        <ele>72.24</ele>
        <time>2016-10-24T15:18:30Z</time>
      </trkpt>
      <trkpt lat="50.64253" lon="3.9559">
        <ele>72.24</ele>
        <time>2016-10-24T15:18:36Z</time>
      </trkpt>
      <trkpt lat="50.64273" lon="3.95587">
        <ele>72.24</ele>
        <time>2016-10-24T15:18:51Z</time>
      </trkpt>
      <trkpt lat="50.64288" lon="3.9558">
        <ele>72.72</ele>
        <time>2016-10-24T15:19:06Z</time>
      </trkpt>
      <trkpt lat="50.64298" lon="3.95568">
        <ele>70.79</ele>
        <time>2016-10-24T15:19:20Z</time>
      </trkpt>
      <trkpt lat="50.6431" lon="3.95554">
        <ele>69.83</ele>
        <time>2016-10-24T15:19:32Z</time>
      </trkpt>
      <trkpt lat="50.64321" lon="3.95541">
        <ele>69.35</ele>
        <time>2016-10-24T15:19:44Z</time>
      </trkpt>
      <trkpt lat="50.64338" lon="3.95531">
        <ele>67.91</ele>
        <time>2016-10-24T15:19:59Z</time>
      </trkpt>
      <trkpt lat="50.64358" lon="3.95516">
        <ele>66.95</ele>
        <time>2016-10-24T15:20:15Z</time>
      </trkpt>
      <trkpt lat="50.64373" lon="3.9551">
        <ele>65.51</ele>
        <time>2016-10-24T15:20:29Z</time>
      </trkpt>
      <trkpt lat="50.64384" lon="3.95502">
        <ele>64.55</ele>
        <time>2016-10-24T15:20:43Z</time>
      </trkpt>
      <trkpt lat="50.6439" lon="3.95498">
        <ele>64.07</ele>
        <time>2016-10-24T15:20:46Z</time>
      </trkpt>
      <trkpt lat="50.64395" lon="3.95491">
        <ele>64.07</ele>
        <time>2016-10-24T15:20:50Z</time>
      </trkpt>
      <trkpt lat="50.64407" lon="3.95473">
        <ele>63.1</ele>
        <time>2016-10-24T15:21:04Z</time>
      </trkpt>
      <trkpt lat="50.64421" lon="3.95442">
        <ele>61.66</ele>
        <time>2016-10-24T15:21:18Z</time>
      </trkpt>
      <trkpt lat="50.64429" lon="3.95415">
        <ele>60.7</ele>
        <time>2016-10-24T15:21:33Z</time>
      </trkpt>
      <trkpt lat="50.64422" lon="3.9538">
        <ele>60.22</ele>
        <time>2016-10-24T15:21:45Z</time>
      </trkpt>
      <trkpt lat="50.64413" lon="3.95362">
        <ele>59.26</ele>
        <time>2016-10-24T15:22:00Z</time>
      </trkpt>
      <trkpt lat="50.64401" lon="3.95341">
        <ele>58.3</ele>
        <time>2016-10-24T15:22:12Z</time>
      </trkpt>
      <trkpt lat="50.6439" lon="3.95325">
        <ele>57.82</ele>
        <time>2016-10-24T15:22:25Z</time>
      </trkpt>
      <trkpt lat="50.64388" lon="3.95321">
        <ele>57.34</ele>
        <time>2016-10-24T15:22:26Z</time>
      </trkpt>
      <trkpt lat="50.64373" lon="3.95302">
        <ele>55.89</ele>
        <time>2016-10-24T15:22:39Z</time>
      </trkpt>
      <trkpt lat="50.64367" lon="3.95295">
        <ele>55.89</ele>
        <time>2016-10-24T15:22:47Z</time>
      </trkpt>
      <trkpt lat="50.64357" lon="3.95278">
        <ele>55.41</ele>
        <time>2016-10-24T15:23:00Z</time>
      </trkpt>
      <trkpt lat="50.64346" lon="3.95253">
        <ele>55.41</ele>
        <time>2016-10-24T15:23:15Z</time>
      </trkpt>
      <trkpt lat="50.64338" lon="3.95244">
        <ele>54.93</ele>
        <time>2016-10-24T15:23:29Z</time>
      </trkpt>
      <trkpt lat="50.6433" lon="3.95233">
        <ele>56.37</ele>
        <time>2016-10-24T15:23:42Z</time>
      </trkpt>
      <trkpt lat="50.64322" lon="3.95214">
        <ele>56.37</ele>
        <time>2016-10-24T15:23:57Z</time>
      </trkpt>
      <trkpt lat="50.64313" lon="3.95201">
        <ele>56.86</ele>
        <time>2016-10-24T15:24:11Z</time>
      </trkpt>
      <trkpt lat="50.64307" lon="3.95193">
        <ele>56.37</ele>
        <time>2016-10-24T15:24:23Z</time>
      </trkpt>
      <trkpt lat="50.64303" lon="3.95188">
        <ele>56.37</ele>
        <time>2016-10-24T15:24:34Z</time>
      </trkpt>
      <trkpt lat="50.64301" lon="3.95179">
        <ele>56.37</ele>
        <time>2016-10-24T15:24:50Z</time>
      </trkpt>
      <trkpt lat="50.64302" lon="3.95175">
        <ele>56.37</ele>
        <time>2016-10-24T15:25:09Z</time>
      </trkpt>
      <trkpt lat="50.64302" lon="3.95173">
        <ele>56.37</ele>
        <time>2016-10-24T15:25:25Z</time>
      </trkpt>
      <trkpt lat="50.64302" lon="3.9517">
        <ele>56.37</ele>
        <time>2016-10-24T15:25:42Z</time>
      </trkpt>
      <trkpt lat="50.64302" lon="3.95169">
        <ele>53.01</ele>
        <time>2016-10-24T15:25:54Z</time>
      </trkpt>
      <trkpt lat="50.64302" lon="3.95169">
        <ele>58.3</ele>
        <time>2016-10-24T15:25:55Z</time>
      </trkpt>
      <trkpt lat="50.64302" lon="3.95168">
        <ele>56.86</ele>
        <time>2016-10-24T15:26:10Z</time>
      </trkpt>
      <trkpt lat="50.64301" lon="3.95166">
        <ele>56.86</ele>
        <time>2016-10-24T15:26:14Z</time>
      </trkpt>
      <trkpt lat="50.64296" lon="3.95138">
        <ele>57.34</ele>
        <time>2016-10-24T15:26:30Z</time>
      </trkpt>
      <trkpt lat="50.64296" lon="3.95107">
        <ele>58.3</ele>
        <time>2016-10-24T15:26:47Z</time>
      </trkpt>
      <trkpt lat="50.64297" lon="3.95072">
        <ele>59.74</ele>
        <time>2016-10-24T15:27:06Z</time>
      </trkpt>
      <trkpt lat="50.64298" lon="3.95045">
        <ele>61.18</ele>
        <time>2016-10-24T15:27:21Z</time>
      </trkpt>
      <trkpt lat="50.643" lon="3.95015">
        <ele>63.58</ele>
        <time>2016-10-24T15:27:38Z</time>
      </trkpt>
      <trkpt lat="50.643" lon="3.94989">
        <ele>65.03</ele>
        <time>2016-10-24T15:27:54Z</time>
      </trkpt>
      <trkpt lat="50.64301" lon="3.94966">
        <ele>66.47</ele>
        <time>2016-10-24T15:28:11Z</time>
      </trkpt>
      <trkpt lat="50.64303" lon="3.94938">
        <ele>67.91</ele>
        <time>2016-10-24T15:28:26Z</time>
      </trkpt>
      <trkpt lat="50.64304" lon="3.94909">
        <ele>68.87</ele>
        <time>2016-10-24T15:28:42Z</time>
      </trkpt>
      <trkpt lat="50.64305" lon="3.94878">
        <ele>69.83</ele>
        <time>2016-10-24T15:28:59Z</time>
      </trkpt>
      <trkpt lat="50.64308" lon="3.94851">
        <ele>70.31</ele>
        <time>2016-10-24T15:29:12Z</time>
      </trkpt>
      <trkpt lat="50.64317" lon="3.9482">
        <ele>71.27</ele>
        <time>2016-10-24T15:29:29Z</time>
      </trkpt>
      <trkpt lat="50.64331" lon="3.94795">
        <ele>71.76</ele>
        <time>2016-10-24T15:29:47Z</time>
      </trkpt>
      <trkpt lat="50.64346" lon="3.94769">
        <ele>71.76</ele>
        <time>2016-10-24T15:30:04Z</time>
      </trkpt>
      <trkpt lat="50.64361" lon="3.94746">
        <ele>71.76</ele>
        <time>2016-10-24T15:30:21Z</time>
      </trkpt>
      <trkpt lat="50.64379" lon="3.94721">
        <ele>71.76</ele>
        <time>2016-10-24T15:30:40Z</time>
      </trkpt>
      <trkpt lat="50.64393" lon="3.94702">
        <ele>70.79</ele>
        <time>2016-10-24T15:30:56Z</time>
      </trkpt>
      <trkpt lat="50.64407" lon="3.94683">
        <ele>69.83</ele>
        <time>2016-10-24T15:31:12Z</time>
      </trkpt>
      <trkpt lat="50.64421" lon="3.94659">
        <ele>68.39</ele>
        <time>2016-10-24T15:31:30Z</time>
      </trkpt>
      <trkpt lat="50.64424" lon="3.94655">
        <ele>67.91</ele>
        <time>2016-10-24T15:31:34Z</time>
      </trkpt>
      <trkpt lat="50.64432" lon="3.94644">
        <ele>67.43</ele>
        <time>2016-10-24T15:31:49Z</time>
      </trkpt>
      <trkpt lat="50.64451" lon="3.94615">
        <ele>65.03</ele>
        <time>2016-10-24T15:32:10Z</time>
      </trkpt>
      <trkpt lat="50.64467" lon="3.94593">
        <ele>64.07</ele>
        <time>2016-10-24T15:32:27Z</time>
      </trkpt>
      <trkpt lat="50.64475" lon="3.94581">
        <ele>63.58</ele>
        <time>2016-10-24T15:32:36Z</time>
      </trkpt>
      <trkpt lat="50.64479" lon="3.94577">
        <ele>63.58</ele>
        <time>2016-10-24T15:32:40Z</time>
      </trkpt>
      <trkpt lat="50.64498" lon="3.9455">
        <ele>63.1</ele>
        <time>2016-10-24T15:32:59Z</time>
      </trkpt>
      <trkpt lat="50.6451" lon="3.94522">
        <ele>63.1</ele>
        <time>2016-10-24T15:33:15Z</time>
      </trkpt>
      <trkpt lat="50.64514" lon="3.94507">
        <ele>63.1</ele>
        <time>2016-10-24T15:33:24Z</time>
      </trkpt>
      <trkpt lat="50.64517" lon="3.94499">
        <ele>64.55</ele>
        <time>2016-10-24T15:33:29Z</time>
      </trkpt>
      <trkpt lat="50.64518" lon="3.94496">
        <ele>65.03</ele>
        <time>2016-10-24T15:33:31Z</time>
      </trkpt>
      <trkpt lat="50.64522" lon="3.94462">
        <ele>67.43</ele>
        <time>2016-10-24T15:33:50Z</time>
      </trkpt>
      <trkpt lat="50.64526" lon="3.9443">
        <ele>68.39</ele>
        <time>2016-10-24T15:34:07Z</time>
      </trkpt>
      <trkpt lat="50.64531" lon="3.94404">
        <ele>69.83</ele>
        <time>2016-10-24T15:34:23Z</time>
      </trkpt>
      <trkpt lat="50.64535" lon="3.94374">
        <ele>72.24</ele>
        <time>2016-10-24T15:34:41Z</time>
      </trkpt>
      <trkpt lat="50.64539" lon="3.94349">
        <ele>73.2</ele>
        <time>2016-10-24T15:34:56Z</time>
      </trkpt>
      <trkpt lat="50.6454" lon="3.94317">
        <ele>74.16</ele>
        <time>2016-10-24T15:35:12Z</time>
      </trkpt>
      <trkpt lat="50.64544" lon="3.94285">
        <ele>75.6</ele>
        <time>2016-10-24T15:35:29Z</time>
      </trkpt>
      <trkpt lat="50.64554" lon="3.9426">
        <ele>76.56</ele>
        <time>2016-10-24T15:35:45Z</time>
      </trkpt>
      <trkpt lat="50.64564" lon="3.94245">
        <ele>78</ele>
        <time>2016-10-24T15:36:01Z</time>
      </trkpt>
      <trkpt lat="50.64565" lon="3.94244">
        <ele>78</ele>
        <time>2016-10-24T15:36:23Z</time>
      </trkpt>
      <trkpt lat="50.64566" lon="3.94242">
        <ele>78</ele>
        <time>2016-10-24T15:36:54Z</time>
      </trkpt>
      <trkpt lat="50.64567" lon="3.94242">
        <ele>78.48</ele>
        <time>2016-10-24T15:37:24Z</time>
      </trkpt>
      <trkpt lat="50.64572" lon="3.94235">
        <ele>78.48</ele>
        <time>2016-10-24T15:37:45Z</time>
      </trkpt>
      <trkpt lat="50.64586" lon="3.94221">
        <ele>78.48</ele>
        <time>2016-10-24T15:38:02Z</time>
      </trkpt>
      <trkpt lat="50.64602" lon="3.94207">
        <ele>76.08</ele>
        <time>2016-10-24T15:38:18Z</time>
      </trkpt>
      <trkpt lat="50.64616" lon="3.94194">
        <ele>75.12</ele>
        <time>2016-10-24T15:38:33Z</time>
      </trkpt>
      <trkpt lat="50.64635" lon="3.94181">
        <ele>72.72</ele>
        <time>2016-10-24T15:38:51Z</time>
      </trkpt>
      <trkpt lat="50.64653" lon="3.94169">
        <ele>71.76</ele>
        <time>2016-10-24T15:39:08Z</time>
      </trkpt>
      <trkpt lat="50.64669" lon="3.94164">
        <ele>70.79</ele>
        <time>2016-10-24T15:39:23Z</time>
      </trkpt>
      <trkpt lat="50.64688" lon="3.9416">
        <ele>70.79</ele>
        <time>2016-10-24T15:39:39Z</time>
      </trkpt>
      <trkpt lat="50.64703" lon="3.94149">
        <ele>70.31</ele>
        <time>2016-10-24T15:39:52Z</time>
      </trkpt>
      <trkpt lat="50.64713" lon="3.94122">
        <ele>70.31</ele>
        <time>2016-10-24T15:40:08Z</time>
      </trkpt>
      <trkpt lat="50.64722" lon="3.94096">
        <ele>70.31</ele>
        <time>2016-10-24T15:40:23Z</time>
      </trkpt>
      <trkpt lat="50.64729" lon="3.94074">
        <ele>71.27</ele>
        <time>2016-10-24T15:40:36Z</time>
      </trkpt>
      <trkpt lat="50.64737" lon="3.9405">
        <ele>71.76</ele>
        <time>2016-10-24T15:40:52Z</time>
      </trkpt>
      <trkpt lat="50.64743" lon="3.94026">
        <ele>73.2</ele>
        <time>2016-10-24T15:41:07Z</time>
      </trkpt>
      <trkpt lat="50.64749" lon="3.93994">
        <ele>73.68</ele>
        <time>2016-10-24T15:41:25Z</time>
      </trkpt>
      <trkpt lat="50.64755" lon="3.93959">
        <ele>75.12</ele>
        <time>2016-10-24T15:41:44Z</time>
      </trkpt>
      <trkpt lat="50.64761" lon="3.93925">
        <ele>75.6</ele>
        <time>2016-10-24T15:42:01Z</time>
      </trkpt>
      <trkpt lat="50.64765" lon="3.93888">
        <ele>76.08</ele>
        <time>2016-10-24T15:42:19Z</time>
      </trkpt>
      <trkpt lat="50.64767" lon="3.9386">
        <ele>77.04</ele>
        <time>2016-10-24T15:42:34Z</time>
      </trkpt>
      <trkpt lat="50.64769" lon="3.93826">
        <ele>78</ele>
        <time>2016-10-24T15:42:52Z</time>
      </trkpt>
      <trkpt lat="50.64771" lon="3.93789">
        <ele>78.97</ele>
        <time>2016-10-24T15:43:11Z</time>
      </trkpt>
      <trkpt lat="50.64772" lon="3.93767">
        <ele>79.45</ele>
        <time>2016-10-24T15:43:24Z</time>
      </trkpt>
      <trkpt lat="50.6477" lon="3.93735">
        <ele>80.89</ele>
        <time>2016-10-24T15:43:41Z</time>
      </trkpt>
      <trkpt lat="50.64767" lon="3.93702">
        <ele>80.41</ele>
        <time>2016-10-24T15:43:58Z</time>
      </trkpt>
      <trkpt lat="50.64761" lon="3.93668">
        <ele>80.89</ele>
        <time>2016-10-24T15:44:16Z</time>
      </trkpt>
      <trkpt lat="50.64756" lon="3.93636">
        <ele>80.89</ele>
        <time>2016-10-24T15:44:34Z</time>
      </trkpt>
      <trkpt lat="50.64751" lon="3.93609">
        <ele>80.89</ele>
        <time>2016-10-24T15:44:48Z</time>
      </trkpt>
      <trkpt lat="50.64751" lon="3.93581">
        <ele>80.89</ele>
        <time>2016-10-24T15:45:04Z</time>
      </trkpt>
      <trkpt lat="50.64755" lon="3.93574">
        <ele>80.89</ele>
        <time>2016-10-24T15:45:10Z</time>
      </trkpt>
      <trkpt lat="50.64772" lon="3.93557">
        <ele>81.37</ele>
        <time>2016-10-24T15:45:28Z</time>
      </trkpt>
      <trkpt lat="50.6479" lon="3.93542">
        <ele>81.85</ele>
        <time>2016-10-24T15:45:44Z</time>
      </trkpt>
      <trkpt lat="50.64808" lon="3.93528">
        <ele>80.89</ele>
        <time>2016-10-24T15:46:00Z</time>
      </trkpt>
      <trkpt lat="50.64827" lon="3.93514">
        <ele>80.89</ele>
        <time>2016-10-24T15:46:16Z</time>
      </trkpt>
      <trkpt lat="50.64846" lon="3.93496">
        <ele>79.93</ele>
        <time>2016-10-24T15:46:34Z</time>
      </trkpt>
      <trkpt lat="50.64862" lon="3.9348">
        <ele>79.93</ele>
        <time>2016-10-24T15:46:50Z</time>
      </trkpt>
      <trkpt lat="50.64865" lon="3.93473">
        <ele>79.45</ele>
        <time>2016-10-24T15:46:56Z</time>
      </trkpt>
      <trkpt lat="50.64862" lon="3.9346">
        <ele>79.45</ele>
        <time>2016-10-24T15:47:05Z</time>
      </trkpt>
      <trkpt lat="50.64854" lon="3.93433">
        <ele>80.89</ele>
        <time>2016-10-24T15:47:22Z</time>
      </trkpt>
      <trkpt lat="50.64846" lon="3.93407">
        <ele>81.37</ele>
        <time>2016-10-24T15:47:39Z</time>
      </trkpt>
      <trkpt lat="50.64841" lon="3.93389">
        <ele>79.93</ele>
        <time>2016-10-24T15:47:53Z</time>
      </trkpt>
      <trkpt lat="50.6484" lon="3.93385">
        <ele>79.93</ele>
        <time>2016-10-24T15:47:59Z</time>
      </trkpt>
      <trkpt lat="50.64837" lon="3.93376">
        <ele>79.45</ele>
        <time>2016-10-24T15:48:12Z</time>
      </trkpt>
      <trkpt lat="50.64834" lon="3.93368">
        <ele>78</ele>
        <time>2016-10-24T15:48:27Z</time>
      </trkpt>
      <trkpt lat="50.64831" lon="3.93358">
        <ele>77.04</ele>
        <time>2016-10-24T15:48:42Z</time>
      </trkpt>
      <trkpt lat="50.64827" lon="3.93343">
        <ele>75.12</ele>
        <time>2016-10-24T15:48:59Z</time>
      </trkpt>
      <trkpt lat="50.64824" lon="3.93331">
        <ele>74.16</ele>
        <time>2016-10-24T15:49:10Z</time>
      </trkpt>
      <trkpt lat="50.6482" lon="3.93309">
        <ele>71.76</ele>
        <time>2016-10-24T15:49:24Z</time>
      </trkpt>
      <trkpt lat="50.64817" lon="3.93289">
        <ele>69.83</ele>
        <time>2016-10-24T15:49:37Z</time>
      </trkpt>
      <trkpt lat="50.64815" lon="3.93265">
        <ele>68.39</ele>
        <time>2016-10-24T15:49:51Z</time>
      </trkpt>
      <trkpt lat="50.64812" lon="3.93241">
        <ele>67.43</ele>
        <time>2016-10-24T15:50:06Z</time>
      </trkpt>
      <trkpt lat="50.6481" lon="3.93217">
        <ele>65.99</ele>
        <time>2016-10-24T15:50:21Z</time>
      </trkpt>
      <trkpt lat="50.64806" lon="3.93196">
        <ele>65.03</ele>
        <time>2016-10-24T15:50:36Z</time>
      </trkpt>
      <trkpt lat="50.64802" lon="3.93173">
        <ele>63.58</ele>
        <time>2016-10-24T15:50:51Z</time>
      </trkpt>
      <trkpt lat="50.648" lon="3.93155">
        <ele>62.14</ele>
        <time>2016-10-24T15:51:05Z</time>
      </trkpt>
      <trkpt lat="50.64795" lon="3.93136">
        <ele>60.22</ele>
        <time>2016-10-24T15:51:21Z</time>
      </trkpt>
      <trkpt lat="50.64789" lon="3.93112">
        <ele>58.3</ele>
        <time>2016-10-24T15:51:37Z</time>
      </trkpt>
      <trkpt lat="50.64784" lon="3.93087">
        <ele>57.34</ele>
        <time>2016-10-24T15:51:52Z</time>
      </trkpt>
      <trkpt lat="50.6478" lon="3.93061">
        <ele>56.37</ele>
        <time>2016-10-24T15:52:08Z</time>
      </trkpt>
      <trkpt lat="50.64776" lon="3.93039">
        <ele>55.41</ele>
        <time>2016-10-24T15:52:25Z</time>
      </trkpt>
      <trkpt lat="50.64776" lon="3.93035">
        <ele>55.41</ele>
        <time>2016-10-24T15:52:27Z</time>
      </trkpt>
      <trkpt lat="50.64774" lon="3.93031">
        <ele>55.41</ele>
        <time>2016-10-24T15:52:30Z</time>
      </trkpt>
      <trkpt lat="50.64772" lon="3.93026">
        <ele>55.41</ele>
        <time>2016-10-24T15:52:33Z</time>
      </trkpt>
      <trkpt lat="50.64768" lon="3.93005">
        <ele>54.45</ele>
        <time>2016-10-24T15:52:49Z</time>
      </trkpt>
      <trkpt lat="50.64767" lon="3.92978">
        <ele>54.45</ele>
        <time>2016-10-24T15:53:04Z</time>
      </trkpt>
      <trkpt lat="50.64764" lon="3.92952">
        <ele>53.97</ele>
        <time>2016-10-24T15:53:19Z</time>
      </trkpt>
      <trkpt lat="50.64764" lon="3.92944">
        <ele>53.97</ele>
        <time>2016-10-24T15:53:24Z</time>
      </trkpt>
      <trkpt lat="50.64765" lon="3.92933">
        <ele>53.97</ele>
        <time>2016-10-24T15:53:31Z</time>
      </trkpt>
      <trkpt lat="50.64769" lon="3.92927">
        <ele>53.97</ele>
        <time>2016-10-24T15:53:35Z</time>
      </trkpt>
      <trkpt lat="50.64773" lon="3.9292">
        <ele>53.49</ele>
        <time>2016-10-24T15:53:39Z</time>
      </trkpt>
      <trkpt lat="50.64782" lon="3.92899">
        <ele>53.49</ele>
        <time>2016-10-24T15:53:54Z</time>
      </trkpt>
      <trkpt lat="50.64786" lon="3.92869">
        <ele>53.01</ele>
        <time>2016-10-24T15:54:10Z</time>
      </trkpt>
      <trkpt lat="50.6479" lon="3.92848">
        <ele>53.01</ele>
        <time>2016-10-24T15:54:26Z</time>
      </trkpt>
      <trkpt lat="50.64796" lon="3.92828">
        <ele>53.01</ele>
        <time>2016-10-24T15:54:42Z</time>
      </trkpt>
      <trkpt lat="50.64799" lon="3.92807">
        <ele>53.01</ele>
        <time>2016-10-24T15:54:53Z</time>
      </trkpt>
      <trkpt lat="50.64804" lon="3.92779">
        <ele>52.53</ele>
        <time>2016-10-24T15:55:09Z</time>
      </trkpt>
      <trkpt lat="50.64811" lon="3.92754">
        <ele>52.53</ele>
        <time>2016-10-24T15:55:23Z</time>
      </trkpt>
      <trkpt lat="50.64814" lon="3.92745">
        <ele>52.53</ele>
        <time>2016-10-24T15:55:29Z</time>
      </trkpt>
      <trkpt lat="50.6482" lon="3.92728">
        <ele>52.53</ele>
        <time>2016-10-24T15:55:44Z</time>
      </trkpt>
      <trkpt lat="50.64832" lon="3.92707">
        <ele>52.53</ele>
        <time>2016-10-24T15:56:01Z</time>
      </trkpt>
      <trkpt lat="50.64846" lon="3.92683">
        <ele>52.05</ele>
        <time>2016-10-24T15:56:22Z</time>
      </trkpt>
      <trkpt lat="50.6486" lon="3.92661">
        <ele>52.05</ele>
        <time>2016-10-24T15:56:38Z</time>
      </trkpt>
      <trkpt lat="50.64876" lon="3.92644">
        <ele>52.05</ele>
        <time>2016-10-24T15:56:47Z</time>
      </trkpt>
      <trkpt lat="50.64876" lon="3.92639">
        <ele>52.05</ele>
        <time>2016-10-24T15:56:50Z</time>
      </trkpt>
      <trkpt lat="50.64877" lon="3.92631">
        <ele>52.05</ele>
        <time>2016-10-24T15:56:55Z</time>
      </trkpt>
      <trkpt lat="50.64873" lon="3.92603">
        <ele>53.49</ele>
        <time>2016-10-24T15:57:09Z</time>
      </trkpt>
      <trkpt lat="50.64871" lon="3.92593">
        <ele>53.97</ele>
        <time>2016-10-24T15:57:13Z</time>
      </trkpt>
      <trkpt lat="50.64869" lon="3.92571">
        <ele>54.93</ele>
        <time>2016-10-24T15:57:26Z</time>
      </trkpt>
      <trkpt lat="50.64869" lon="3.92557">
        <ele>54.93</ele>
        <time>2016-10-24T15:57:36Z</time>
      </trkpt>
      <trkpt lat="50.64862" lon="3.92528">
        <ele>55.89</ele>
        <time>2016-10-24T15:57:51Z</time>
      </trkpt>
      <trkpt lat="50.64859" lon="3.925">
        <ele>56.86</ele>
        <time>2016-10-24T15:58:08Z</time>
      </trkpt>
      <trkpt lat="50.64859" lon="3.92498">
        <ele>56.86</ele>
        <time>2016-10-24T15:58:09Z</time>
      </trkpt>
      <trkpt lat="50.64864" lon="3.92465">
        <ele>57.34</ele>
        <time>2016-10-24T15:58:25Z</time>
      </trkpt>
      <trkpt lat="50.64869" lon="3.92433">
        <ele>57.82</ele>
        <time>2016-10-24T15:58:40Z</time>
      </trkpt>
      <trkpt lat="50.6487" lon="3.92412">
        <ele>56.86</ele>
        <time>2016-10-24T15:58:56Z</time>
      </trkpt>
      <trkpt lat="50.64867" lon="3.92403">
        <ele>56.86</ele>
        <time>2016-10-24T15:59:16Z</time>
      </trkpt>
      <trkpt lat="50.64869" lon="3.92398">
        <ele>56.86</ele>
        <time>2016-10-24T15:59:34Z</time>
      </trkpt>
      <trkpt lat="50.64873" lon="3.92401">
        <ele>56.86</ele>
        <time>2016-10-24T15:59:48Z</time>
      </trkpt>
      <trkpt lat="50.64874" lon="3.924">
        <ele>56.86</ele>
        <time>2016-10-24T16:00:00Z</time>
      </trkpt>
      <trkpt lat="50.64875" lon="3.92407">
        <ele>56.37</ele>
        <time>2016-10-24T16:00:15Z</time>
      </trkpt>
      <trkpt lat="50.64877" lon="3.92409">
        <ele>56.37</ele>
        <time>2016-10-24T16:00:19Z</time>
      </trkpt>
      <trkpt lat="50.64884" lon="3.92419">
        <ele>55.89</ele>
        <time>2016-10-24T16:00:33Z</time>
      </trkpt>
      <trkpt lat="50.64886" lon="3.92417">
        <ele>55.89</ele>
        <time>2016-10-24T16:00:47Z</time>
      </trkpt>
      <trkpt lat="50.64882" lon="3.92409">
        <ele>56.37</ele>
        <time>2016-10-24T16:01:05Z</time>
      </trkpt>
      <trkpt lat="50.64883" lon="3.92409">
        <ele>57.34</ele>
        <time>2016-10-24T16:01:18Z</time>
      </trkpt>
      <trkpt lat="50.64887" lon="3.92416">
        <ele>56.86</ele>
        <time>2016-10-24T16:01:42Z</time>
      </trkpt>
      <trkpt lat="50.6489" lon="3.92418">
        <ele>55.89</ele>
        <time>2016-10-24T16:02:01Z</time>
      </trkpt>
      <trkpt lat="50.64887" lon="3.92416">
        <ele>56.86</ele>
        <time>2016-10-24T16:02:08Z</time>
      </trkpt>
      <trkpt lat="50.64884" lon="3.92411">
        <ele>56.86</ele>
        <time>2016-10-24T16:02:23Z</time>
      </trkpt>
      <trkpt lat="50.64884" lon="3.92396">
        <ele>57.82</ele>
        <time>2016-10-24T16:02:42Z</time>
      </trkpt>
      <trkpt lat="50.64882" lon="3.92385">
        <ele>56.37</ele>
        <time>2016-10-24T16:02:57Z</time>
      </trkpt>
      <trkpt lat="50.64882" lon="3.92377">
        <ele>57.82</ele>
        <time>2016-10-24T16:03:09Z</time>
      </trkpt>
      <trkpt lat="50.64883" lon="3.92386">
        <ele>57.82</ele>
        <time>2016-10-24T16:03:27Z</time>
      </trkpt>
      <trkpt lat="50.64884" lon="3.92397">
        <ele>57.82</ele>
        <time>2016-10-24T16:03:40Z</time>
      </trkpt>
      <trkpt lat="50.64884" lon="3.92414">
        <ele>58.3</ele>
        <time>2016-10-24T16:04:02Z</time>
      </trkpt>
      <trkpt lat="50.64886" lon="3.92412">
        <ele>58.3</ele>
        <time>2016-10-24T16:04:13Z</time>
      </trkpt>
      <trkpt lat="50.64889" lon="3.92406">
        <ele>58.3</ele>
        <time>2016-10-24T16:04:18Z</time>
      </trkpt>
      <trkpt lat="50.6489" lon="3.92389">
        <ele>58.3</ele>
        <time>2016-10-24T16:04:30Z</time>
      </trkpt>
      <trkpt lat="50.64887" lon="3.92394">
        <ele>58.3</ele>
        <time>2016-10-24T16:04:44Z</time>
      </trkpt>
      <trkpt lat="50.64892" lon="3.92392">
        <ele>58.78</ele>
        <time>2016-10-24T16:04:58Z</time>
      </trkpt>
      <trkpt lat="50.64893" lon="3.92392">
        <ele>58.78</ele>
        <time>2016-10-24T16:05:01Z</time>
      </trkpt>
      <trkpt lat="50.64898" lon="3.92384">
        <ele>58.78</ele>
        <time>2016-10-24T16:05:08Z</time>
      </trkpt>
      <trkpt lat="50.649" lon="3.92368">
        <ele>57.34</ele>
        <time>2016-10-24T16:05:19Z</time>
      </trkpt>
      <trkpt lat="50.64902" lon="3.92357">
        <ele>57.82</ele>
        <time>2016-10-24T16:05:29Z</time>
      </trkpt>
      <trkpt lat="50.64907" lon="3.92352">
        <ele>57.34</ele>
        <time>2016-10-24T16:05:36Z</time>
      </trkpt>
      <trkpt lat="50.64919" lon="3.92351">
        <ele>56.86</ele>
        <time>2016-10-24T16:05:46Z</time>
      </trkpt>
      <trkpt lat="50.64923" lon="3.92354">
        <ele>56.86</ele>
        <time>2016-10-24T16:05:50Z</time>
      </trkpt>
      <trkpt lat="50.64926" lon="3.92355">
        <ele>56.86</ele>
        <time>2016-10-24T16:05:53Z</time>
      </trkpt>
      <trkpt lat="50.64942" lon="3.92354">
        <ele>55.89</ele>
        <time>2016-10-24T16:06:01Z</time>
      </trkpt>
      <trkpt lat="50.64958" lon="3.92362">
        <ele>56.37</ele>
        <time>2016-10-24T16:06:13Z</time>
      </trkpt>
      <trkpt lat="50.6496" lon="3.92362">
        <ele>56.37</ele>
        <time>2016-10-24T16:06:15Z</time>
      </trkpt>
      <trkpt lat="50.64969" lon="3.92367">
        <ele>55.89</ele>
        <time>2016-10-24T16:06:30Z</time>
      </trkpt>
      <trkpt lat="50.6497" lon="3.92373">
        <ele>55.89</ele>
        <time>2016-10-24T16:06:42Z</time>
      </trkpt>
      <trkpt lat="50.64973" lon="3.9238">
        <ele>56.37</ele>
        <time>2016-10-24T16:07:07Z</time>
      </trkpt>
      <trkpt lat="50.64978" lon="3.92381">
        <ele>56.37</ele>
        <time>2016-10-24T16:07:25Z</time>
      </trkpt>
      <trkpt lat="50.6498" lon="3.92377">
        <ele>56.86</ele>
        <time>2016-10-24T16:07:44Z</time>
      </trkpt>
      <trkpt lat="50.64977" lon="3.92367">
        <ele>57.34</ele>
        <time>2016-10-24T16:08:10Z</time>
      </trkpt>
      <trkpt lat="50.6498" lon="3.92364">
        <ele>57.34</ele>
        <time>2016-10-24T16:08:18Z</time>
      </trkpt>
    </trkseg>
  </trk>
</gpx>